Kipling, North Carolina
Current Conditions -  °F | °C
As of 7:15 PM on Saturday 20 Dec 2014 (Local Time) from KHRJ Reporting Station
Broken Clouds Broken Clouds  
Wind Chill: 40°   Ceiling: 6000
Heat Index: 40°   Visibility: 10mi
Dew Point: 35°   Wind: 3mph
Humidity: 82%   Direction: 40°NE
Pressure: 30.3"   Gusts: NA
Location:  35.48°N, 78.82°W
Report Text: KHRJ 210015Z AUTO 04003KT 10SM BKN060 04/01 A3030 RMK AO2 T00420014
Loading
Personal Weather Stations






























Interactive Weather Map New forecast layout! Learn more

10-Day Weather Forecast

Advertisements
Track Severe Weather on mobile